createdAt,value
2022-11-04T00:00:43.814Z,96.50
2022-11-04T00:03:46.271Z,96.65
2022-11-04T00:06:48.802Z,96.62
2022-11-04T00:09:51.612Z,96.83
2022-11-04T00:12:53.704Z,96.53
2022-11-04T00:16:14.450Z,96.82
2022-11-04T00:19:16.981Z,96.59
2022-11-04T00:22:37.858Z,98.59
2022-11-04T00:25:58.463Z,98.88
2022-11-04T00:29:00.380Z,99.05
2022-11-04T00:32:22.985Z,98.96
2022-11-04T00:35:25.101Z,99.15
2022-11-04T00:38:27.233Z,99.82
2022-11-04T00:41:30.546Z,99.44
2022-11-04T00:44:32.690Z,97.39
2022-11-04T00:47:34.733Z,96.15
2022-11-04T00:50:36.940Z,95.74
2022-11-04T00:53:38.868Z,95.82
2022-11-04T00:56:41.794Z,96.22
2022-11-04T00:59:45.777Z,96.18
2022-11-04T01:02:48.322Z,96.15
2022-11-04T01:05:50.363Z,95.81
2022-11-04T01:09:01.050Z,96.39
2022-11-04T01:12:03.175Z,97.89
2022-11-04T01:15:05.805Z,98.43
2022-11-04T01:18:08.182Z,98.53
2022-11-04T01:21:15.022Z,97.73
2022-11-04T01:24:17.048Z,98.48
2022-11-04T01:27:19.076Z,98.26
2022-11-04T01:30:21.126Z,97.81
2022-11-04T01:33:23.238Z,97.23
2022-11-04T01:36:26.656Z,95.92
2022-11-04T01:39:28.737Z,95.43
2022-11-04T01:42:30.845Z,95.31
2022-11-04T01:45:33.045Z,94.78
2022-11-04T01:48:36.032Z,94.50
2022-11-04T01:51:41.613Z,94.66
2022-11-04T01:54:48.017Z,94.40
2022-11-04T01:57:52.291Z,95.56
2022-11-04T02:00:55.683Z,96.90
2022-11-04T02:04:21.243Z,97.07
2022-11-04T02:07:23.824Z,97.09
2022-11-04T02:10:29.256Z,97.18
2022-11-04T02:13:33.603Z,97.31
2022-11-04T02:16:45.418Z,97.26
2022-11-04T02:20:06.291Z,97.02
2022-11-04T02:23:31.642Z,96.10
2022-11-04T02:27:04.088Z,94.87
2022-11-04T02:30:13.486Z,93.74
2022-11-04T02:33:41.887Z,94.18
2022-11-04T02:36:43.873Z,94.24
2022-11-04T02:40:01.236Z,94.09
2022-11-04T02:43:21.318Z,93.52
2022-11-04T02:46:26.806Z,94.25
2022-11-04T02:50:06.161Z,95.92
2022-11-04T02:53:12.449Z,96.46
2022-11-04T02:56:16.698Z,96.71
2022-11-04T02:59:42.587Z,96.00
2022-11-04T03:02:49.180Z,95.87
2022-11-04T03:05:54.997Z,96.50
2022-11-04T03:08:59.717Z,95.69
2022-11-04T03:12:07.723Z,95.57
2022-11-04T03:15:17.921Z,93.87
2022-11-04T03:18:24.252Z,93.54
2022-11-04T03:21:28.980Z,92.93
2022-11-04T03:24:32.105Z,92.84
2022-11-04T03:27:52.050Z,93.05
2022-11-04T03:30:58.669Z,92.83
2022-11-04T03:34:00.925Z,92.37
2022-11-04T03:37:03.243Z,92.29
2022-11-04T03:40:05.933Z,94.03
2022-11-04T03:43:13.624Z,94.40
2022-11-04T03:46:15.900Z,94.69
2022-11-04T03:49:18.433Z,95.06
2022-11-04T03:52:20.958Z,94.76
2022-11-04T03:55:43.192Z,94.60
2022-11-04T03:59:09.222Z,94.91
2022-11-04T04:02:42.620Z,92.84
2022-11-04T04:06:02.676Z,92.08
2022-11-04T04:09:04.692Z,92.79
2022-11-04T04:12:11.572Z,93.94
2022-11-04T04:15:28.643Z,94.30
2022-11-04T04:18:39.043Z,93.99
2022-11-04T04:21:53.295Z,94.29
2022-11-04T04:25:17.200Z,93.79
2022-11-04T04:28:20.330Z,96.80
2022-11-04T04:31:42.266Z,97.39
2022-11-04T04:34:44.896Z,100.00
2022-11-04T04:37:48.369Z,100.00
2022-11-04T04:41:22.987Z,100.00
2022-11-04T04:44:46.285Z,100.00
2022-11-04T04:47:48.319Z,100.00
2022-11-04T04:50:57.014Z,100.00
2022-11-04T04:53:59.122Z,100.00
2022-11-04T04:57:01.097Z,100.00
2022-11-04T05:00:05.042Z,100.00
2022-11-04T05:03:07.258Z,100.00
2022-11-04T05:06:09.703Z,100.00
2022-11-04T05:09:11.702Z,100.00
2022-11-04T05:12:13.764Z,100.00
2022-11-04T05:15:16.306Z,100.00
2022-11-04T05:18:18.697Z,100.00
2022-11-04T05:21:20.687Z,100.00
2022-11-04T05:24:22.909Z,100.00
2022-11-04T05:27:24.962Z,100.00
2022-11-04T05:30:26.942Z,100.00
2022-11-04T05:33:28.950Z,100.00
2022-11-04T05:36:30.938Z,100.00
2022-11-04T05:39:32.927Z,100.00
2022-11-04T05:42:36.943Z,100.00
2022-11-04T05:45:39.069Z,100.00
2022-11-04T05:48:41.098Z,100.00
2022-11-04T05:51:43.511Z,100.00
2022-11-04T05:54:45.486Z,100.00
2022-11-04T05:57:47.518Z,100.00
2022-11-04T06:00:49.676Z,100.00
2022-11-04T06:03:52.893Z,100.00
2022-11-04T06:06:54.982Z,98.96
2022-11-04T06:09:57.056Z,100.00
2022-11-04T06:12:59.089Z,100.00
2022-11-04T06:16:01.041Z,100.00
2022-11-04T06:19:07.588Z,100.00
2022-11-04T06:22:18.121Z,100.00
2022-11-04T06:25:21.506Z,100.00
2022-11-04T06:28:23.573Z,100.00
2022-11-04T06:31:26.871Z,100.00
2022-11-04T06:34:29.195Z,98.72
2022-11-04T06:37:31.252Z,97.47
2022-11-04T06:40:33.202Z,95.56
2022-11-04T06:43:35.479Z,94.62
2022-11-04T06:46:39.979Z,94.89
2022-11-04T06:49:41.981Z,93.50
2022-11-04T06:52:45.200Z,93.38
2022-11-04T06:55:47.335Z,93.38
2022-11-04T06:58:51.745Z,95.02
2022-11-04T07:01:53.761Z,95.01
2022-11-04T07:08:03.137Z,92.88
2022-11-04T07:11:05.482Z,93.16
2022-11-04T07:14:09.129Z,93.74
2022-11-04T07:17:16.697Z,92.67
2022-11-04T07:20:18.752Z,93.70
2022-11-04T07:23:22.137Z,93.38
2022-11-04T07:26:24.490Z,93.01
2022-11-04T07:29:26.789Z,93.47
2022-11-04T07:32:29.163Z,94.19
2022-11-04T07:35:31.249Z,94.77
2022-11-04T07:38:33.470Z,94.65
2022-11-04T07:41:36.242Z,94.78
2022-11-04T07:44:38.321Z,94.79
2022-11-04T07:47:40.379Z,95.20
2022-11-04T07:50:42.481Z,94.41
2022-11-04T07:53:44.734Z,94.30
2022-11-04T07:56:46.798Z,95.83
2022-11-04T07:59:49.137Z,95.23
2022-11-04T08:02:52.459Z,95.80
2022-11-04T08:05:58.998Z,93.98
2022-11-04T08:09:01.176Z,95.46
2022-11-04T08:12:05.341Z,97.81
2022-11-04T08:15:09.496Z,93.00
2022-11-04T08:18:11.632Z,87.93
2022-11-04T08:21:14.247Z,90.80
2022-11-04T08:24:16.670Z,83.54
2022-11-04T08:27:18.697Z,83.29
2022-11-04T08:30:21.020Z,78.02
2022-11-04T08:33:25.112Z,74.35
2022-11-04T08:36:30.749Z,72.61
2022-11-04T08:39:32.985Z,68.05
2022-11-04T08:42:35.292Z,65.86
2022-11-04T08:45:46.238Z,64.44
2022-11-04T08:48:49.692Z,63.26
2022-11-04T08:51:57.272Z,58.67
2022-11-04T08:54:59.446Z,56.79
2022-11-04T08:58:02.317Z,55.62
2022-11-04T09:01:07.093Z,54.32
2022-11-04T09:04:12.083Z,53.85
2022-11-04T09:07:14.428Z,53.79
2022-11-04T09:10:17.721Z,53.27
2022-11-04T09:13:19.976Z,53.56
2022-11-04T09:16:22.181Z,53.51
2022-11-04T09:19:24.335Z,53.26
2022-11-04T09:22:26.485Z,53.05
2022-11-04T09:25:28.582Z,53.43
2022-11-04T09:28:30.837Z,52.75
2022-11-04T09:31:32.865Z,54.19
2022-11-04T09:34:35.553Z,57.41
2022-11-04T09:37:37.817Z,59.68
2022-11-04T09:40:39.936Z,59.84
2022-11-04T09:44:03.757Z,59.86
2022-11-04T09:47:11.085Z,60.32
2022-11-04T09:50:31.247Z,61.01
2022-11-04T09:53:46.319Z,88.35
2022-11-04T09:56:51.535Z,95.46
2022-11-04T09:59:54.339Z,67.55
2022-11-04T10:03:15.729Z,70.14
2022-11-04T10:06:41.649Z,71.45
2022-11-04T10:09:57.854Z,68.21
2022-11-04T10:13:12.042Z,66.91
2022-11-04T10:16:35.803Z,66.40
2022-11-04T10:20:19.612Z,64.86
2022-11-04T10:23:34.989Z,64.51
2022-11-04T10:26:46.263Z,64.16
2022-11-04T10:30:04.260Z,65.98
2022-11-04T10:33:36.389Z,64.83
2022-11-04T10:36:39.994Z,64.67
2022-11-04T10:39:45.665Z,63.68
2022-11-04T10:42:49.111Z,64.12
2022-11-04T10:46:18.803Z,63.83
2022-11-04T10:49:21.057Z,63.63
2022-11-04T10:52:23.956Z,63.15
2022-11-04T10:55:57.866Z,63.47
2022-11-04T10:59:20.403Z,62.68
2022-11-04T11:02:49.589Z,63.52
2022-11-04T11:06:30.237Z,62.85
2022-11-04T11:09:36.090Z,62.99
2022-11-04T11:12:51.660Z,63.86
2022-11-04T11:16:18.316Z,63.74
2022-11-04T11:19:25.448Z,65.06
2022-11-04T11:22:47.653Z,64.67
2022-11-04T11:25:51.590Z,65.22
2022-11-04T11:28:59.302Z,64.71
2022-11-04T11:32:01.582Z,65.05
2022-11-04T11:35:07.724Z,65.83
2022-11-04T11:38:29.960Z,65.14
2022-11-04T11:41:53.497Z,65.34
2022-11-04T11:45:00.344Z,65.23
2022-11-04T11:48:02.602Z,65.47
2022-11-04T11:51:05.894Z,65.92
2022-11-04T11:54:17.771Z,65.55
2022-11-04T11:57:40.822Z,65.64
2022-11-04T12:01:06.687Z,65.88
2022-11-04T12:11:52.781Z,65.30
2022-11-04T12:15:19.094Z,66.80
2022-11-04T12:18:24.267Z,66.65
2022-11-04T12:21:35.655Z,67.28
2022-11-04T12:25:17.103Z,66.93
2022-11-04T12:28:29.716Z,67.24
2022-11-04T12:31:40.612Z,68.04
2022-11-04T12:35:10.315Z,68.00
2022-11-04T12:38:24.743Z,67.67
2022-11-04T12:41:59.237Z,67.80
2022-11-04T12:45:13.020Z,69.02
2022-11-04T12:48:57.012Z,68.01
2022-11-04T12:52:09.724Z,69.71
2022-11-04T12:55:43.493Z,69.59
2022-11-04T12:58:53.852Z,69.52
2022-11-04T13:02:21.873Z,71.06
2022-11-04T13:05:47.118Z,71.50
2022-11-04T13:08:54.743Z,71.21
2022-11-04T13:12:16.821Z,70.79
2022-11-04T13:15:26.962Z,71.79
2022-11-04T13:18:34.923Z,72.09
2022-11-04T13:21:39.512Z,70.76
2022-11-04T13:24:50.931Z,71.45
2022-11-04T13:27:56.933Z,70.66
2022-11-04T13:31:13.125Z,70.98
2022-11-04T13:34:37.046Z,70.83
2022-11-04T13:37:51.356Z,71.65
2022-11-04T13:45:27.799Z,71.48
2022-11-04T13:48:33.883Z,71.40
2022-11-04T13:51:42.559Z,70.99
2022-11-04T13:55:04.182Z,72.13
2022-11-04T13:58:14.234Z,72.68
2022-11-04T14:01:19.541Z,72.57
2022-11-04T14:04:31.953Z,72.19
2022-11-04T14:08:02.024Z,72.34
2022-11-04T14:11:11.153Z,72.63
2022-11-04T14:14:20.722Z,73.50
2022-11-04T14:17:35.938Z,73.35
2022-11-04T14:20:57.885Z,73.11
2022-11-04T14:24:16.300Z,73.71
2022-11-04T14:27:52.016Z,74.44
2022-11-04T14:30:59.702Z,74.28
2022-11-04T14:34:11.241Z,74.40
2022-11-04T14:37:23.390Z,74.90
2022-11-04T14:40:29.492Z,75.96
2022-11-04T14:43:36.201Z,76.36
2022-11-04T14:46:44.526Z,77.21
2022-11-04T14:49:51.891Z,77.34
2022-11-04T14:53:03.909Z,77.80
2022-11-04T14:56:21.966Z,77.62
2022-11-04T14:59:29.090Z,78.96
2022-11-04T15:02:35.000Z,79.18
2022-11-04T15:05:39.954Z,78.58
2022-11-04T15:08:42.421Z,79.45
2022-11-04T15:12:21.473Z,80.46
2022-11-04T15:15:33.658Z,82.75
2022-11-04T15:18:42.279Z,83.37
2022-11-04T15:21:47.427Z,83.66
2022-11-04T15:24:53.531Z,83.64
2022-11-04T15:27:56.580Z,83.93
2022-11-04T15:31:07.313Z,82.53
2022-11-04T15:34:20.888Z,79.70
2022-11-04T15:37:36.470Z,78.55
2022-11-04T15:40:41.045Z,76.80
2022-11-04T15:43:43.221Z,75.72
2022-11-04T15:46:51.326Z,75.67
2022-11-04T15:50:01.467Z,74.07
2022-11-04T15:53:10.219Z,73.95
2022-11-04T15:56:16.255Z,74.38
2022-11-04T15:59:34.050Z,74.46
2022-11-04T16:02:46.069Z,74.23
2022-11-04T16:06:55.991Z,73.65
2022-11-04T16:09:58.969Z,74.06
2022-11-04T16:13:20.345Z,74.17
2022-11-04T16:16:30.197Z,74.11
2022-11-04T16:19:33.394Z,74.65
2022-11-04T16:22:42.619Z,74.57
2022-11-04T16:25:45.133Z,75.01
2022-11-04T16:28:54.557Z,75.28
2022-11-04T16:32:18.551Z,75.81
2022-11-04T16:35:26.651Z,75.38
2022-11-04T16:38:28.974Z,75.94
2022-11-04T16:41:36.679Z,76.13
2022-11-04T16:44:40.361Z,76.31
2022-11-04T16:48:17.836Z,76.43
2022-11-04T16:51:27.554Z,76.67
2022-11-04T16:54:30.666Z,76.46
2022-11-04T16:57:38.425Z,76.57
2022-11-04T17:00:40.577Z,76.97
2022-11-04T17:03:46.363Z,76.81
2022-11-04T17:06:49.770Z,77.13
2022-11-04T17:09:54.621Z,77.45
2022-11-04T17:12:56.784Z,78.02
2022-11-04T17:15:59.145Z,78.66
2022-11-04T17:19:05.287Z,79.39
2022-11-04T17:22:19.601Z,81.65
2022-11-04T17:25:24.635Z,83.09
2022-11-04T17:28:35.332Z,84.79
2022-11-04T17:31:40.768Z,87.35
2022-11-04T17:34:43.546Z,89.14
2022-11-04T17:37:47.674Z,91.36
2022-11-04T17:41:11.447Z,92.98
2022-11-04T17:44:17.405Z,94.86
2022-11-04T17:47:19.841Z,95.94
2022-11-04T17:50:26.857Z,96.09
2022-11-04T17:53:31.122Z,96.61
2022-11-04T17:56:33.402Z,96.28
2022-11-04T17:59:43.873Z,95.97
2022-11-04T18:02:48.303Z,96.46
2022-11-04T18:05:59.202Z,97.23
2022-11-04T18:09:09.937Z,97.13
2022-11-04T18:12:32.130Z,96.97
2022-11-04T18:15:34.281Z,97.44
2022-11-04T18:18:46.447Z,97.15
2022-11-04T18:21:57.758Z,97.13
2022-11-04T18:24:59.960Z,97.66
2022-11-04T18:28:03.497Z,97.08
2022-11-04T18:31:15.987Z,97.37
2022-11-04T18:34:19.982Z,97.20
2022-11-04T18:37:23.344Z,96.89
2022-11-04T18:40:41.282Z,96.29
2022-11-04T18:43:43.842Z,96.76
2022-11-04T18:46:51.283Z,96.49
2022-11-04T18:49:57.298Z,96.41
2022-11-04T18:52:59.691Z,95.41
2022-11-04T18:56:18.605Z,96.01
2022-11-04T19:04:32.449Z,95.47
2022-11-04T19:08:14.514Z,95.04
2022-11-04T19:11:54.822Z,94.87
2022-11-04T19:15:10.312Z,95.03
2022-11-04T19:18:16.308Z,93.97
2022-11-04T19:22:08.185Z,94.44
2022-11-04T19:25:13.141Z,94.13
2022-11-04T19:28:37.235Z,94.38
2022-11-04T19:31:55.187Z,94.85
2022-11-04T19:35:04.619Z,94.37
2022-11-04T19:38:07.609Z,94.03
2022-11-04T19:41:42.467Z,93.35
2022-11-04T19:44:44.703Z,93.81
2022-11-04T19:47:58.985Z,94.29
2022-11-04T19:51:01.315Z,94.00
2022-11-04T19:54:07.908Z,93.22
2022-11-04T19:57:13.250Z,93.25
2022-11-04T20:00:15.475Z,93.49
2022-11-04T20:03:18.982Z,92.94
2022-11-04T20:06:23.996Z,92.34
2022-11-04T20:09:27.377Z,92.89
2022-11-04T20:12:48.635Z,92.12
2022-11-04T20:15:54.558Z,92.10
2022-11-04T20:19:03.638Z,92.14
2022-11-04T20:22:06.003Z,91.69
2022-11-04T20:25:08.330Z,90.76
2022-11-04T20:28:19.324Z,90.37
2022-11-04T20:31:24.438Z,90.58
2022-11-04T20:34:32.565Z,90.78
2022-11-04T20:37:35.755Z,90.64
2022-11-04T20:40:37.780Z,90.84
2022-11-04T20:43:39.877Z,90.08
2022-11-04T20:46:44.335Z,90.54
2022-11-04T20:49:47.802Z,90.69
2022-11-04T20:52:52.336Z,90.09
2022-11-04T20:55:55.211Z,90.15
2022-11-04T20:59:00.868Z,90.29
2022-11-04T21:02:02.908Z,90.69
2022-11-04T21:05:05.421Z,90.77
2022-11-04T21:08:08.049Z,89.92
2022-11-04T21:11:11.288Z,89.99
2022-11-04T21:14:15.167Z,89.40
2022-11-04T21:17:17.485Z,89.74
2022-11-04T21:20:20.614Z,89.66
2022-11-04T21:23:23.627Z,89.24
2022-11-04T21:26:27.309Z,89.08
2022-11-04T21:29:29.400Z,90.17
2022-11-04T21:32:31.481Z,90.36
2022-11-04T21:35:38.289Z,89.84
2022-11-04T21:38:41.479Z,89.88
2022-11-04T21:41:44.172Z,90.09
2022-11-04T21:44:46.202Z,89.35
2022-11-04T21:47:48.256Z,89.13
2022-11-04T21:50:50.730Z,89.43
2022-11-04T21:53:52.896Z,89.10
2022-11-04T21:56:54.847Z,89.07
2022-11-04T21:59:56.954Z,89.66
2022-11-04T22:02:58.900Z,89.23
2022-11-04T22:06:08.174Z,89.00
2022-11-04T22:09:13.421Z,89.53
2022-11-04T22:12:15.409Z,89.51
2022-11-04T22:15:37.330Z,88.96
2022-11-04T22:18:39.809Z,89.50
2022-11-04T22:21:44.585Z,89.53
2022-11-04T22:25:03.426Z,89.02
2022-11-04T22:28:05.579Z,87.94
2022-11-04T22:31:22.358Z,88.51
2022-11-04T22:34:25.454Z,88.82
2022-11-04T22:37:27.595Z,89.19
2022-11-04T22:40:29.904Z,88.82
2022-11-04T22:43:32.937Z,89.21
2022-11-04T22:46:35.431Z,89.42
2022-11-04T22:49:37.735Z,89.52
2022-11-04T22:52:39.789Z,89.29
2022-11-04T22:55:41.908Z,89.26
2022-11-04T22:58:44.117Z,89.71
2022-11-04T23:01:46.388Z,89.44
2022-11-04T23:04:48.777Z,89.53
2022-11-04T23:07:51.820Z,89.08
2022-11-04T23:11:25.373Z,87.98
2022-11-04T23:14:54.782Z,87.73
2022-11-04T23:18:15.948Z,87.21
2022-11-04T23:21:39.045Z,87.19
2022-11-04T23:24:59.537Z,87.26
2022-11-04T23:28:20.002Z,87.73
2022-11-04T23:31:22.096Z,87.53
2022-11-04T23:34:44.448Z,87.82
2022-11-04T23:37:47.813Z,88.28
2022-11-04T23:41:12.377Z,88.80
2022-11-04T23:44:34.388Z,88.84
2022-11-04T23:47:59.888Z,89.26
2022-11-04T23:51:21.922Z,88.95
2022-11-04T23:54:42.984Z,88.75
2022-11-04T23:58:03.423Z,87.65
